sensor_id;sensor_type;location;lat;lon;timestamp;temperature;humidity
6291;DHT22;3178;48.730;8.990;2022-09-21T00:00:48;6.20;99.90
6291;DHT22;3178;48.730;8.990;2022-09-21T00:03:14;6.20;99.90
6291;DHT22;3178;48.730;8.990;2022-09-21T00:05:40;6.10;99.90
6291;DHT22;3178;48.730;8.990;2022-09-21T00:08:07;6.10;99.90
6291;DHT22;3178;48.730;8.990;2022-09-21T00:10:34;6.10;99.90
6291;DHT22;3178;48.730;8.990;2022-09-21T00:13:00;6.10;99.90
6291;DHT22;3178;48.730;8.990;2022-09-21T00:15:27;6.00;99.90
6291;DHT22;3178;48.730;8.990;2022-09-21T00:17:54;6.00;99.90
6291;DHT22;3178;48.730;8.990;2022-09-21T00:20:20;6.00;99.90
6291;DHT22;3178;48.730;8.990;2022-09-21T00:22:46;6.00;99.90
6291;DHT22;3178;48.730;8.990;2022-09-21T00:25:12;5.90;99.90
6291;DHT22;3178;48.730;8.990;2022-09-21T00:27:38;6.00;99.90
6291;DHT22;3178;48.730;8.990;2022-09-21T00:30:05;5.90;99.90
6291;DHT22;3178;48.730;8.990;2022-09-21T00:32:32;5.90;99.90
6291;DHT22;3178;48.730;8.990;2022-09-21T00:34:58;5.90;99.90
6291;DHT22;3178;48.730;8.990;2022-09-21T00:37:25;5.90;99.90
6291;DHT22;3178;48.730;8.990;2022-09-21T00:39:51;5.90;99.90
6291;DHT22;3178;48.730;8.990;2022-09-21T00:42:19;5.90;99.90
6291;DHT22;3178;48.730;8.990;2022-09-21T00:44:45;5.80;99.90
6291;DHT22;3178;48.730;8.990;2022-09-21T00:47:17;5.80;99.90
6291;DHT22;3178;48.730;8.990;2022-09-21T00:49:47;5.80;99.90
6291;DHT22;3178;48.730;8.990;2022-09-21T00:52:15;5.70;99.90
6291;DHT22;3178;48.730;8.990;2022-09-21T00:54:50;5.70;99.90
6291;DHT22;3178;48.730;8.990;2022-09-21T00:57:17;5.70;99.90
6291;DHT22;3178;48.730;8.990;2022-09-21T00:59:46;5.60;99.90
6291;DHT22;3178;48.730;8.990;2022-09-21T01:02:13;5.60;99.90
6291;DHT22;3178;48.730;8.990;2022-09-21T01:04:39;5.60;99.90
6291;DHT22;3178;48.730;8.990;2022-09-21T01:07:10;5.60;99.90
6291;DHT22;3178;48.730;8.990;2022-09-21T01:09:37;5.60;99.90
6291;DHT22;3178;48.730;8.990;2022-09-21T01:12:33;5.60;99.90
6291;DHT22;3178;48.730;8.990;2022-09-21T01:17:51;5.60;99.90
6291;DHT22;3178;48.730;8.990;2022-09-21T01:26:07;5.60;99.90
6291;DHT22;3178;48.730;8.990;2022-09-21T01:31:41;5.50;99.90
6291;DHT22;3178;48.730;8.990;2022-09-21T01:34:35;5.50;99.90
6291;DHT22;3178;48.730;8.990;2022-09-21T01:37:00;5.50;99.90
6291;DHT22;3178;48.730;8.990;2022-09-21T01:39:28;5.50;99.90
6291;DHT22;3178;48.730;8.990;2022-09-21T01:41:55;5.40;99.90
6291;DHT22;3178;48.730;8.990;2022-09-21T01:44:26;5.40;99.90
6291;DHT22;3178;48.730;8.990;2022-09-21T01:46:53;5.40;99.90
6291;DHT22;3178;48.730;8.990;2022-09-21T01:49:24;5.40;99.90
6291;DHT22;3178;48.730;8.990;2022-09-21T01:51:56;5.40;99.90
6291;DHT22;3178;48.730;8.990;2022-09-21T01:54:53;5.30;99.90
6291;DHT22;3178;48.730;8.990;2022-09-21T01:57:29;5.30;99.90
6291;DHT22;3178;48.730;8.990;2022-09-21T01:59:58;5.30;99.90
6291;DHT22;3178;48.730;8.990;2022-09-21T02:02:51;5.30;99.90
6291;DHT22;3178;48.730;8.990;2022-09-21T02:05:20;5.30;99.90
6291;DHT22;3178;48.730;8.990;2022-09-21T02:07:47;5.30;99.90
6291;DHT22;3178;48.730;8.990;2022-09-21T02:10:33;5.30;99.90
6291;DHT22;3178;48.730;8.990;2022-09-21T02:13:01;5.30;99.90
6291;DHT22;3178;48.730;8.990;2022-09-21T02:21:40;5.20;99.90
6291;DHT22;3178;48.730;8.990;2022-09-21T02:24:15;5.20;99.90
6291;DHT22;3178;48.730;8.990;2022-09-21T02:27:20;5.20;99.90
6291;DHT22;3178;48.730;8.990;2022-09-21T02:32:55;5.10;99.90
6291;DHT22;3178;48.730;8.990;2022-09-21T02:35:36;5.10;99.90
6291;DHT22;3178;48.730;8.990;2022-09-21T02:38:12;5.00;99.90
6291;DHT22;3178;48.730;8.990;2022-09-21T02:40:57;5.00;99.90
6291;DHT22;3178;48.730;8.990;2022-09-21T02:46:00;5.00;99.90
6291;DHT22;3178;48.730;8.990;2022-09-21T02:48:36;5.00;99.90
6291;DHT22;3178;48.730;8.990;2022-09-21T02:51:12;4.90;99.90
6291;DHT22;3178;48.730;8.990;2022-09-21T02:53:41;4.90;99.90
6291;DHT22;3178;48.730;8.990;2022-09-21T02:56:08;4.90;99.90
6291;DHT22;3178;48.730;8.990;2022-09-21T02:58:39;4.90;99.90
6291;DHT22;3178;48.730;8.990;2022-09-21T03:01:08;4.90;99.90
6291;DHT22;3178;48.730;8.990;2022-09-21T03:03:34;4.80;99.90
6291;DHT22;3178;48.730;8.990;2022-09-21T03:06:01;4.80;99.90
6291;DHT22;3178;48.730;8.990;2022-09-21T03:08:27;4.80;99.90
6291;DHT22;3178;48.730;8.990;2022-09-21T03:10:52;4.80;99.90
6291;DHT22;3178;48.730;8.990;2022-09-21T03:13:18;4.70;99.90
6291;DHT22;3178;48.730;8.990;2022-09-21T03:15:44;4.80;99.90
6291;DHT22;3178;48.730;8.990;2022-09-21T03:18:11;4.80;99.90
6291;DHT22;3178;48.730;8.990;2022-09-21T03:20:43;4.80;99.90
6291;DHT22;3178;48.730;8.990;2022-09-21T03:23:12;4.80;99.90
6291;DHT22;3178;48.730;8.990;2022-09-21T03:25:38;4.80;99.90
6291;DHT22;3178;48.730;8.990;2022-09-21T03:28:04;4.80;99.90
6291;DHT22;3178;48.730;8.990;2022-09-21T03:30:30;4.80;99.90
6291;DHT22;3178;48.730;8.990;2022-09-21T03:32:57;4.70;99.90
6291;DHT22;3178;48.730;8.990;2022-09-21T03:35:23;4.70;99.90
6291;DHT22;3178;48.730;8.990;2022-09-21T03:37:51;4.70;99.90
6291;DHT22;3178;48.730;8.990;2022-09-21T03:40:17;4.70;99.90
6291;DHT22;3178;48.730;8.990;2022-09-21T03:42:44;4.70;99.90
6291;DHT22;3178;48.730;8.990;2022-09-21T03:45:10;4.70;99.90
6291;DHT22;3178;48.730;8.990;2022-09-21T03:47:37;4.60;99.90
6291;DHT22;3178;48.730;8.990;2022-09-21T03:50:04;4.60;99.90
6291;DHT22;3178;48.730;8.990;2022-09-21T03:52:30;4.60;99.90
6291;DHT22;3178;48.730;8.990;2022-09-21T03:54:56;4.60;99.90
6291;DHT22;3178;48.730;8.990;2022-09-21T03:57:22;4.60;99.90
6291;DHT22;3178;48.730;8.990;2022-09-21T03:59:47;4.50;99.90
6291;DHT22;3178;48.730;8.990;2022-09-21T04:02:14;4.50;99.90
6291;DHT22;3178;48.730;8.990;2022-09-21T04:04:40;4.50;99.90
6291;DHT22;3178;48.730;8.990;2022-09-21T04:07:06;4.50;99.90
6291;DHT22;3178;48.730;8.990;2022-09-21T04:09:31;4.40;99.90
6291;DHT22;3178;48.730;8.990;2022-09-21T04:11:57;4.40;99.90
6291;DHT22;3178;48.730;8.990;2022-09-21T04:14:22;4.40;99.90
6291;DHT22;3178;48.730;8.990;2022-09-21T04:16:48;4.40;99.90
6291;DHT22;3178;48.730;8.990;2022-09-21T04:19:16;4.40;99.90
6291;DHT22;3178;48.730;8.990;2022-09-21T04:21:42;4.30;99.90
6291;DHT22;3178;48.730;8.990;2022-09-21T04:24:08;4.40;99.90
6291;DHT22;3178;48.730;8.990;2022-09-21T04:26:34;4.40;99.90
6291;DHT22;3178;48.730;8.990;2022-09-21T04:29:00;4.40;99.90
6291;DHT22;3178;48.730;8.990;2022-09-21T04:31:27;4.30;99.90
6291;DHT22;3178;48.730;8.990;2022-09-21T04:33:55;4.30;99.90
6291;DHT22;3178;48.730;8.990;2022-09-21T04:36:22;4.30;99.90
6291;DHT22;3178;48.730;8.990;2022-09-21T04:38:48;4.20;99.90
6291;DHT22;3178;48.730;8.990;2022-09-21T04:41:15;4.20;99.90
6291;DHT22;3178;48.730;8.990;2022-09-21T04:43:45;4.20;99.90
6291;DHT22;3178;48.730;8.990;2022-09-21T04:46:16;4.20;99.90
6291;DHT22;3178;48.730;8.990;2022-09-21T04:48:42;4.20;99.90
6291;DHT22;3178;48.730;8.990;2022-09-21T04:51:08;4.10;99.90
6291;DHT22;3178;48.730;8.990;2022-09-21T04:53:35;4.10;99.90
6291;DHT22;3178;48.730;8.990;2022-09-21T04:56:03;4.10;99.90
6291;DHT22;3178;48.730;8.990;2022-09-21T04:58:29;4.10;99.90
6291;DHT22;3178;48.730;8.990;2022-09-21T05:00:54;4.10;99.90
6291;DHT22;3178;48.730;8.990;2022-09-21T05:03:21;4.10;99.90
6291;DHT22;3178;48.730;8.990;2022-09-21T05:05:48;4.10;99.90
6291;DHT22;3178;48.730;8.990;2022-09-21T05:08:15;4.10;99.90
6291;DHT22;3178;48.730;8.990;2022-09-21T05:10:40;4.10;99.90
6291;DHT22;3178;48.730;8.990;2022-09-21T05:13:06;4.10;99.90
6291;DHT22;3178;48.730;8.990;2022-09-21T05:15:32;4.10;99.90
6291;DHT22;3178;48.730;8.990;2022-09-21T05:17:57;4.20;99.90
6291;DHT22;3178;48.730;8.990;2022-09-21T05:20:23;4.20;99.90
6291;DHT22;3178;48.730;8.990;2022-09-21T05:22:48;4.20;99.90
6291;DHT22;3178;48.730;8.990;2022-09-21T05:25:14;4.20;99.90
6291;DHT22;3178;48.730;8.990;2022-09-21T05:27:40;4.20;99.90
6291;DHT22;3178;48.730;8.990;2022-09-21T05:30:06;4.30;99.90
6291;DHT22;3178;48.730;8.990;2022-09-21T05:32:40;4.30;99.90
6291;DHT22;3178;48.730;8.990;2022-09-21T05:38:02;4.30;99.90
6291;DHT22;3178;48.730;8.990;2022-09-21T05:40:31;4.30;99.90
6291;DHT22;3178;48.730;8.990;2022-09-21T05:42:57;4.30;99.90
6291;DHT22;3178;48.730;8.990;2022-09-21T05:45:23;4.30;99.90
6291;DHT22;3178;48.730;8.990;2022-09-21T05:47:57;4.30;99.90
6291;DHT22;3178;48.730;8.990;2022-09-21T05:53:47;4.40;99.90
6291;DHT22;3178;48.730;8.990;2022-09-21T05:56:17;4.40;99.90
6291;DHT22;3178;48.730;8.990;2022-09-21T06:02:12;4.50;99.90
6291;DHT22;3178;48.730;8.990;2022-09-21T06:04:41;4.50;99.90
6291;DHT22;3178;48.730;8.990;2022-09-21T06:07:07;4.60;99.90
6291;DHT22;3178;48.730;8.990;2022-09-21T06:09:33;4.70;99.90
6291;DHT22;3178;48.730;8.990;2022-09-21T06:11:58;4.80;99.90
6291;DHT22;3178;48.730;8.990;2022-09-21T06:14:24;4.90;99.90
6291;DHT22;3178;48.730;8.990;2022-09-21T06:16:51;5.10;99.90
6291;DHT22;3178;48.730;8.990;2022-09-21T06:19:17;5.30;99.90
6291;DHT22;3178;48.730;8.990;2022-09-21T06:21:42;5.50;99.90
6291;DHT22;3178;48.730;8.990;2022-09-21T06:24:08;5.60;99.90
6291;DHT22;3178;48.730;8.990;2022-09-21T06:26:34;5.80;99.90
6291;DHT22;3178;48.730;8.990;2022-09-21T06:29:00;6.00;99.90
6291;DHT22;3178;48.730;8.990;2022-09-21T06:31:26;6.20;99.90
6291;DHT22;3178;48.730;8.990;2022-09-21T06:33:51;6.40;99.90
6291;DHT22;3178;48.730;8.990;2022-09-21T06:36:17;6.60;99.90
6291;DHT22;3178;48.730;8.990;2022-09-21T06:38:43;7.00;99.90
6291;DHT22;3178;48.730;8.990;2022-09-21T06:41:08;7.70;99.90
6291;DHT22;3178;48.730;8.990;2022-09-21T06:43:34;8.40;99.90
6291;DHT22;3178;48.730;8.990;2022-09-21T06:46:01;9.50;99.90
6291;DHT22;3178;48.730;8.990;2022-09-21T06:48:28;10.60;99.90
6291;DHT22;3178;48.730;8.990;2022-09-21T06:50:58;11.40;99.90
6291;DHT22;3178;48.730;8.990;2022-09-21T06:53:24;11.70;99.90
6291;DHT22;3178;48.730;8.990;2022-09-21T06:55:50;12.10;99.90
6291;DHT22;3178;48.730;8.990;2022-09-21T06:58:16;12.40;99.90
6291;DHT22;3178;48.730;8.990;2022-09-21T07:00:42;12.60;99.90
6291;DHT22;3178;48.730;8.990;2022-09-21T07:03:11;12.70;99.90
6291;DHT22;3178;48.730;8.990;2022-09-21T07:05:38;12.90;99.90
6291;DHT22;3178;48.730;8.990;2022-09-21T07:08:04;13.20;99.90
6291;DHT22;3178;48.730;8.990;2022-09-21T07:10:30;13.30;99.90
6291;DHT22;3178;48.730;8.990;2022-09-21T07:13:01;13.40;99.90
6291;DHT22;3178;48.730;8.990;2022-09-21T07:15:27;13.60;99.90
6291;DHT22;3178;48.730;8.990;2022-09-21T07:17:54;14.20;99.90
6291;DHT22;3178;48.730;8.990;2022-09-21T07:20:20;14.50;99.90
6291;DHT22;3178;48.730;8.990;2022-09-21T07:22:46;15.10;99.90
6291;DHT22;3178;48.730;8.990;2022-09-21T07:25:12;15.80;99.90
6291;DHT22;3178;48.730;8.990;2022-09-21T07:27:38;16.40;99.90
6291;DHT22;3178;48.730;8.990;2022-09-21T07:30:04;17.10;99.90
6291;DHT22;3178;48.730;8.990;2022-09-21T07:32:30;17.80;99.90
6291;DHT22;3178;48.730;8.990;2022-09-21T07:34:55;18.90;99.90
6291;DHT22;3178;48.730;8.990;2022-09-21T07:37:22;19.60;99.90
6291;DHT22;3178;48.730;8.990;2022-09-21T07:39:49;20.50;99.90
6291;DHT22;3178;48.730;8.990;2022-09-21T07:42:15;21.30;99.90
6291;DHT22;3178;48.730;8.990;2022-09-21T07:44:42;22.00;99.90
6291;DHT22;3178;48.730;8.990;2022-09-21T07:47:07;22.50;96.80
6291;DHT22;3178;48.730;8.990;2022-09-21T07:49:33;22.90;95.80
6291;DHT22;3178;48.730;8.990;2022-09-21T07:51:59;23.60;94.30
6291;DHT22;3178;48.730;8.990;2022-09-21T07:54:25;23.40;91.30
6291;DHT22;3178;48.730;8.990;2022-09-21T07:56:50;23.60;90.70
6291;DHT22;3178;48.730;8.990;2022-09-21T07:59:34;23.30;90.50
6291;DHT22;3178;48.730;8.990;2022-09-21T08:02:00;23.20;90.80
6291;DHT22;3178;48.730;8.990;2022-09-21T08:04:25;23.20;90.30
6291;DHT22;3178;48.730;8.990;2022-09-21T08:06:51;23.20;86.80
6291;DHT22;3178;48.730;8.990;2022-09-21T08:09:17;22.90;85.90
6291;DHT22;3178;48.730;8.990;2022-09-21T08:11:42;22.80;86.10
6291;DHT22;3178;48.730;8.990;2022-09-21T08:14:09;22.80;86.50
6291;DHT22;3178;48.730;8.990;2022-09-21T08:16:36;23.10;83.40
6291;DHT22;3178;48.730;8.990;2022-09-21T08:19:03;23.60;86.10
6291;DHT22;3178;48.730;8.990;2022-09-21T08:21:29;24.30;82.30
6291;DHT22;3178;48.730;8.990;2022-09-21T08:23:55;23.90;81.70
6291;DHT22;3178;48.730;8.990;2022-09-21T08:26:22;24.50;83.40
6291;DHT22;3178;48.730;8.990;2022-09-21T08:28:51;24.90;80.30
6291;DHT22;3178;48.730;8.990;2022-09-21T08:31:19;24.70;78.80
6291;DHT22;3178;48.730;8.990;2022-09-21T08:33:46;24.60;76.90
6291;DHT22;3178;48.730;8.990;2022-09-21T08:36:11;24.80;80.80
6291;DHT22;3178;48.730;8.990;2022-09-21T08:38:38;25.50;75.80
6291;DHT22;3178;48.730;8.990;2022-09-21T08:44:12;25.30;72.40
6291;DHT22;3178;48.730;8.990;2022-09-21T08:46:40;25.20;71.30
6291;DHT22;3178;48.730;8.990;2022-09-21T08:49:18;24.90;70.50
6291;DHT22;3178;48.730;8.990;2022-09-21T08:52:06;24.70;72.30
6291;DHT22;3178;48.730;8.990;2022-09-21T08:54:42;24.80;72.60
6291;DHT22;3178;48.730;8.990;2022-09-21T08:57:12;25.20;70.30
6291;DHT22;3178;48.730;8.990;2022-09-21T08:59:45;24.90;71.70
6291;DHT22;3178;48.730;8.990;2022-09-21T09:02:28;25.70;69.30
6291;DHT22;3178;48.730;8.990;2022-09-21T09:12:57;25.10;69.40
6291;DHT22;3178;48.730;8.990;2022-09-21T09:18:32;25.90;66.80
6291;DHT22;3178;48.730;8.990;2022-09-21T09:21:05;25.70;66.00
6291;DHT22;3178;48.730;8.990;2022-09-21T09:23:37;24.00;65.80
6291;DHT22;3178;48.730;8.990;2022-09-21T09:26:14;23.00;69.80
6291;DHT22;3178;48.730;8.990;2022-09-21T09:28:49;23.10;70.60
6291;DHT22;3178;48.730;8.990;2022-09-21T09:31:18;23.90;68.60
6291;DHT22;3178;48.730;8.990;2022-09-21T09:36:26;24.20;65.60
6291;DHT22;3178;48.730;8.990;2022-09-21T09:38:56;23.90;69.00
6291;DHT22;3178;48.730;8.990;2022-09-21T09:41:38;23.80;67.60
6291;DHT22;3178;48.730;8.990;2022-09-21T09:44:19;22.70;68.60
6291;DHT22;3178;48.730;8.990;2022-09-21T09:52:12;19.00;77.90
6291;DHT22;3178;48.730;8.990;2022-09-21T09:54:39;18.70;80.30
6291;DHT22;3178;48.730;8.990;2022-09-21T09:57:05;18.30;80.00
6291;DHT22;3178;48.730;8.990;2022-09-21T10:02:06;18.20;81.40
6291;DHT22;3178;48.730;8.990;2022-09-21T10:04:32;18.60;81.70
6291;DHT22;3178;48.730;8.990;2022-09-21T10:06:59;18.70;81.90
6291;DHT22;3178;48.730;8.990;2022-09-21T10:09:26;18.60;79.40
6291;DHT22;3178;48.730;8.990;2022-09-21T10:11:55;18.80;78.70
6291;DHT22;3178;48.730;8.990;2022-09-21T10:14:24;18.70;79.10
6291;DHT22;3178;48.730;8.990;2022-09-21T10:16:52;19.10;81.30
6291;DHT22;3178;48.730;8.990;2022-09-21T10:19:25;19.30;79.30
6291;DHT22;3178;48.730;8.990;2022-09-21T10:21:55;18.90;79.00
6291;DHT22;3178;48.730;8.990;2022-09-21T10:27:10;18.80;79.60
6291;DHT22;3178;48.730;8.990;2022-09-21T10:29:45;19.00;81.70
6291;DHT22;3178;48.730;8.990;2022-09-21T10:34:37;19.40;81.20
6291;DHT22;3178;48.730;8.990;2022-09-21T10:37:29;19.50;79.90
6291;DHT22;3178;48.730;8.990;2022-09-21T10:39:55;20.00;82.30
6291;DHT22;3178;48.730;8.990;2022-09-21T10:42:24;20.60;81.70
6291;DHT22;3178;48.730;8.990;2022-09-21T10:44:52;21.10;78.70
6291;DHT22;3178;48.730;8.990;2022-09-21T10:47:32;21.50;77.80
6291;DHT22;3178;48.730;8.990;2022-09-21T10:50:05;21.40;72.90
6291;DHT22;3178;48.730;8.990;2022-09-21T10:52:42;21.40;76.80
6291;DHT22;3178;48.730;8.990;2022-09-21T10:55:19;21.80;77.40
6291;DHT22;3178;48.730;8.990;2022-09-21T10:57:46;22.40;77.10
6291;DHT22;3178;48.730;8.990;2022-09-21T11:02:50;24.70;73.00
6291;DHT22;3178;48.730;8.990;2022-09-21T11:07:57;24.80;66.60
6291;DHT22;3178;48.730;8.990;2022-09-21T11:13:16;24.50;64.00
6291;DHT22;3178;48.730;8.990;2022-09-21T11:16:00;23.10;67.50
6291;DHT22;3178;48.730;8.990;2022-09-21T11:21:02;21.60;73.10
6291;DHT22;3178;48.730;8.990;2022-09-21T11:26:24;20.90;72.80
6291;DHT22;3178;48.730;8.990;2022-09-21T11:29:02;20.00;75.60
6291;DHT22;3178;48.730;8.990;2022-09-21T11:34:41;19.60;79.50
6291;DHT22;3178;48.730;8.990;2022-09-21T11:44:52;17.90;82.80
6291;DHT22;3178;48.730;8.990;2022-09-21T11:58:54;21.70;75.00
6291;DHT22;3178;48.730;8.990;2022-09-21T12:04:30;21.60;73.80
6291;DHT22;3178;48.730;8.990;2022-09-21T12:12:42;23.00;69.50
6291;DHT22;3178;48.730;8.990;2022-09-21T12:15:24;23.50;69.50
6291;DHT22;3178;48.730;8.990;2022-09-21T12:18:14;23.10;71.90
6291;DHT22;3178;48.730;8.990;2022-09-21T12:21:21;21.90;71.70
6291;DHT22;3178;48.730;8.990;2022-09-21T12:23:51;20.40;75.30
6291;DHT22;3178;48.730;8.990;2022-09-21T12:26:26;19.50;79.90
6291;DHT22;3178;48.730;8.990;2022-09-21T12:29:00;19.10;80.10
6291;DHT22;3178;48.730;8.990;2022-09-21T12:31:41;18.70;80.60
6291;DHT22;3178;48.730;8.990;2022-09-21T12:34:15;18.20;82.10
6291;DHT22;3178;48.730;8.990;2022-09-21T12:36:46;18.30;82.90
6291;DHT22;3178;48.730;8.990;2022-09-21T12:39:25;20.50;78.50
6291;DHT22;3178;48.730;8.990;2022-09-21T12:41:57;23.60;69.80
6291;DHT22;3178;48.730;8.990;2022-09-21T12:44:44;26.10;63.50
6291;DHT22;3178;48.730;8.990;2022-09-21T12:47:55;27.40;62.20
6291;DHT22;3178;48.730;8.990;2022-09-21T12:50:31;25.60;60.90
6291;DHT22;3178;48.730;8.990;2022-09-21T12:52:59;24.00;64.20
6291;DHT22;3178;48.730;8.990;2022-09-21T12:55:39;22.90;65.90
6291;DHT22;3178;48.730;8.990;2022-09-21T12:58:42;22.30;67.70
6291;DHT22;3178;48.730;8.990;2022-09-21T13:09:00;22.20;67.80
6291;DHT22;3178;48.730;8.990;2022-09-21T13:11:31;21.50;68.40
6291;DHT22;3178;48.730;8.990;2022-09-21T13:14:03;20.50;70.70
6291;DHT22;3178;48.730;8.990;2022-09-21T13:16:31;19.50;72.30
6291;DHT22;3178;48.730;8.990;2022-09-21T13:19:00;19.00;75.20
6291;DHT22;3178;48.730;8.990;2022-09-21T13:21:29;18.70;76.10
6291;DHT22;3178;48.730;8.990;2022-09-21T13:24:01;18.80;74.30
6291;DHT22;3178;48.730;8.990;2022-09-21T13:29:03;19.40;75.00
6291;DHT22;3178;48.730;8.990;2022-09-21T13:31:54;19.80;77.70
6291;DHT22;3178;48.730;8.990;2022-09-21T13:47:53;20.20;73.50
6291;DHT22;3178;48.730;8.990;2022-09-21T13:50:28;19.90;73.60
6291;DHT22;3178;48.730;8.990;2022-09-21T13:52:59;19.60;73.70
6291;DHT22;3178;48.730;8.990;2022-09-21T13:55:27;19.20;73.70
6291;DHT22;3178;48.730;8.990;2022-09-21T13:57:55;18.70;75.00
6291;DHT22;3178;48.730;8.990;2022-09-21T14:05:40;18.70;75.30
6291;DHT22;3178;48.730;8.990;2022-09-21T14:10:54;18.30;74.50
6291;DHT22;3178;48.730;8.990;2022-09-21T14:13:26;17.90;74.30
6291;DHT22;3178;48.730;8.990;2022-09-21T14:15:52;17.70;77.20
6291;DHT22;3178;48.730;8.990;2022-09-21T14:18:33;17.50;76.10
6291;DHT22;3178;48.730;8.990;2022-09-21T14:23:33;17.10;78.20
6291;DHT22;3178;48.730;8.990;2022-09-21T14:26:00;17.20;76.60
6291;DHT22;3178;48.730;8.990;2022-09-21T14:28:42;17.10;76.60
6291;DHT22;3178;48.730;8.990;2022-09-21T14:31:28;17.30;77.80
6291;DHT22;3178;48.730;8.990;2022-09-21T14:33:57;17.20;76.10
6291;DHT22;3178;48.730;8.990;2022-09-21T14:36:32;17.00;74.90
6291;DHT22;3178;48.730;8.990;2022-09-21T14:39:04;16.80;75.60
6291;DHT22;3178;48.730;8.990;2022-09-21T14:41:38;16.60;76.80
6291;DHT22;3178;48.730;8.990;2022-09-21T14:44:05;16.70;79.40
6291;DHT22;3178;48.730;8.990;2022-09-21T14:55:04;16.90;77.90
6291;DHT22;3178;48.730;8.990;2022-09-21T15:00:22;16.50;77.00
6291;DHT22;3178;48.730;8.990;2022-09-21T15:15:30;16.10;77.80
6291;DHT22;3178;48.730;8.990;2022-09-21T15:17:59;16.10;77.10
6291;DHT22;3178;48.730;8.990;2022-09-21T15:20:30;16.00;78.20
6291;DHT22;3178;48.730;8.990;2022-09-21T15:22:57;15.90;79.60
6291;DHT22;3178;48.730;8.990;2022-09-21T15:25:25;15.90;79.80
6291;DHT22;3178;48.730;8.990;2022-09-21T15:27:52;16.00;81.60
6291;DHT22;3178;48.730;8.990;2022-09-21T15:30:23;15.90;81.10
6291;DHT22;3178;48.730;8.990;2022-09-21T15:33:01;15.70;80.10
6291;DHT22;3178;48.730;8.990;2022-09-21T15:35:31;15.50;80.20
6291;DHT22;3178;48.730;8.990;2022-09-21T15:37:58;15.30;80.90
6291;DHT22;3178;48.730;8.990;2022-09-21T15:40:26;15.20;82.40
6291;DHT22;3178;48.730;8.990;2022-09-21T15:43:05;15.00;82.30
6291;DHT22;3178;48.730;8.990;2022-09-21T15:53:30;14.70;84.30
6291;DHT22;3178;48.730;8.990;2022-09-21T15:55:57;14.80;84.20
6291;DHT22;3178;48.730;8.990;2022-09-21T15:58:35;14.80;83.60
6291;DHT22;3178;48.730;8.990;2022-09-21T16:01:16;14.80;83.20
6291;DHT22;3178;48.730;8.990;2022-09-21T16:03:44;14.80;83.50
6291;DHT22;3178;48.730;8.990;2022-09-21T16:06:38;14.70;82.20
6291;DHT22;3178;48.730;8.990;2022-09-21T16:11:56;14.70;82.20
6291;DHT22;3178;48.730;8.990;2022-09-21T16:14:22;14.60;81.30
6291;DHT22;3178;48.730;8.990;2022-09-21T16:22:30;14.40;84.10
6291;DHT22;3178;48.730;8.990;2022-09-21T16:25:00;14.30;84.30
6291;DHT22;3178;48.730;8.990;2022-09-21T16:27:29;14.30;84.40
6291;DHT22;3178;48.730;8.990;2022-09-21T16:29:57;14.20;86.90
6291;DHT22;3178;48.730;8.990;2022-09-21T16:34:52;14.20;85.40
6291;DHT22;3178;48.730;8.990;2022-09-21T16:39:54;14.00;84.90
6291;DHT22;3178;48.730;8.990;2022-09-21T16:42:21;13.90;84.70
6291;DHT22;3178;48.730;8.990;2022-09-21T16:44:48;13.90;84.80
6291;DHT22;3178;48.730;8.990;2022-09-21T16:47:17;13.80;86.60
6291;DHT22;3178;48.730;8.990;2022-09-21T16:49:45;13.80;87.80
6291;DHT22;3178;48.730;8.990;2022-09-21T16:52:11;13.70;90.00
6291;DHT22;3178;48.730;8.990;2022-09-21T16:54:36;13.60;89.70
6291;DHT22;3178;48.730;8.990;2022-09-21T16:57:04;13.60;87.80
6291;DHT22;3178;48.730;8.990;2022-09-21T16:59:31;13.50;88.40
6291;DHT22;3178;48.730;8.990;2022-09-21T17:01:58;13.40;89.40
6291;DHT22;3178;48.730;8.990;2022-09-21T17:04:30;13.30;91.40
6291;DHT22;3178;48.730;8.990;2022-09-21T17:06:56;13.20;90.90
6291;DHT22;3178;48.730;8.990;2022-09-21T17:09:29;13.10;92.00
6291;DHT22;3178;48.730;8.990;2022-09-21T17:11:59;13.00;93.40
6291;DHT22;3178;48.730;8.990;2022-09-21T17:14:29;12.80;94.10
6291;DHT22;3178;48.730;8.990;2022-09-21T17:17:23;12.70;95.70
6291;DHT22;3178;48.730;8.990;2022-09-21T17:19:51;12.60;97.50
6291;DHT22;3178;48.730;8.990;2022-09-21T17:22:17;12.40;98.90
6291;DHT22;3178;48.730;8.990;2022-09-21T17:24:44;12.30;99.70
6291;DHT22;3178;48.730;8.990;2022-09-21T17:27:11;12.10;99.90
6291;DHT22;3178;48.730;8.990;2022-09-21T17:29:37;12.00;99.90
6291;DHT22;3178;48.730;8.990;2022-09-21T17:32:04;11.90;99.90
6291;DHT22;3178;48.730;8.990;2022-09-21T17:34:34;11.70;99.90
6291;DHT22;3178;48.730;8.990;2022-09-21T17:37:00;11.60;99.90
6291;DHT22;3178;48.730;8.990;2022-09-21T17:39:26;11.50;99.90
6291;DHT22;3178;48.730;8.990;2022-09-21T17:41:53;11.50;99.90
6291;DHT22;3178;48.730;8.990;2022-09-21T17:44:43;11.30;99.90
6291;DHT22;3178;48.730;8.990;2022-09-21T17:47:23;11.20;99.90
6291;DHT22;3178;48.730;8.990;2022-09-21T17:50:22;11.10;99.90
6291;DHT22;3178;48.730;8.990;2022-09-21T17:52:47;11.00;99.90
6291;DHT22;3178;48.730;8.990;2022-09-21T17:55:31;10.90;99.90
6291;DHT22;3178;48.730;8.990;2022-09-21T18:00:40;10.70;99.90
6291;DHT22;3178;48.730;8.990;2022-09-21T18:03:25;10.70;99.90
6291;DHT22;3178;48.730;8.990;2022-09-21T18:05:53;10.60;99.90
6291;DHT22;3178;48.730;8.990;2022-09-21T18:08:22;10.50;99.90
6291;DHT22;3178;48.730;8.990;2022-09-21T18:19:05;10.20;99.90
6291;DHT22;3178;48.730;8.990;2022-09-21T18:21:40;10.20;99.90
6291;DHT22;3178;48.730;8.990;2022-09-21T18:24:19;10.20;99.90
6291;DHT22;3178;48.730;8.990;2022-09-21T18:26:46;10.10;99.90
6291;DHT22;3178;48.730;8.990;2022-09-21T18:32:05;10.00;99.90
6291;DHT22;3178;48.730;8.990;2022-09-21T18:43:24;9.80;99.90
6291;DHT22;3178;48.730;8.990;2022-09-21T18:46:06;9.60;99.90
6291;DHT22;3178;48.730;8.990;2022-09-21T18:48:50;9.70;99.90
6291;DHT22;3178;48.730;8.990;2022-09-21T18:54:23;9.50;99.90
6291;DHT22;3178;48.730;8.990;2022-09-21T18:56:51;9.50;99.90
6291;DHT22;3178;48.730;8.990;2022-09-21T18:59:17;9.40;99.90
6291;DHT22;3178;48.730;8.990;2022-09-21T19:01:44;9.40;99.90
6291;DHT22;3178;48.730;8.990;2022-09-21T19:04:11;9.40;99.90
6291;DHT22;3178;48.730;8.990;2022-09-21T19:07:02;9.30;99.90
6291;DHT22;3178;48.730;8.990;2022-09-21T19:09:52;9.30;99.90
6291;DHT22;3178;48.730;8.990;2022-09-21T19:12:43;9.30;99.90
6291;DHT22;3178;48.730;8.990;2022-09-21T19:15:18;9.20;99.90
6291;DHT22;3178;48.730;8.990;2022-09-21T19:20:59;9.10;99.90
6291;DHT22;3178;48.730;8.990;2022-09-21T19:23:33;9.10;99.90
6291;DHT22;3178;48.730;8.990;2022-09-21T19:26:20;9.10;99.90
6291;DHT22;3178;48.730;8.990;2022-09-21T19:32:14;9.00;99.90
6291;DHT22;3178;48.730;8.990;2022-09-21T19:34:40;9.00;99.90
6291;DHT22;3178;48.730;8.990;2022-09-21T19:37:06;8.90;99.90
6291;DHT22;3178;48.730;8.990;2022-09-21T19:39:33;8.90;99.90
6291;DHT22;3178;48.730;8.990;2022-09-21T19:42:05;8.90;99.90
6291;DHT22;3178;48.730;8.990;2022-09-21T19:44:54;8.80;99.90
6291;DHT22;3178;48.730;8.990;2022-09-21T19:47:30;8.70;99.90
6291;DHT22;3178;48.730;8.990;2022-09-21T19:50:17;8.60;99.90
6291;DHT22;3178;48.730;8.990;2022-09-21T19:52:44;8.50;99.90
6291;DHT22;3178;48.730;8.990;2022-09-21T19:55:15;8.40;99.90
6291;DHT22;3178;48.730;8.990;2022-09-21T19:58:00;8.30;99.90
6291;DHT22;3178;48.730;8.990;2022-09-21T20:00:48;8.20;99.90
6291;DHT22;3178;48.730;8.990;2022-09-21T20:03:25;8.10;99.90
6291;DHT22;3178;48.730;8.990;2022-09-21T20:08:45;8.00;99.90
6291;DHT22;3178;48.730;8.990;2022-09-21T20:11:23;7.90;99.90
6291;DHT22;3178;48.730;8.990;2022-09-21T20:16:55;7.80;99.90